Time;durP1;ratioP1;P1;durP2;ratioP2;P2;SDS_P1;SDS_P2;PMS_P1;PMS_P2;Temp;Humidity;BMP_temperature;BMP_pressure;BME280_temperature;BME280_humidity;BME280_pressure;Samples;Min_cycle;Max_cycle;Signal;HPM_P1;HPM_P2
2021/10/26 00:00:38;;;;;;;98.13;35.42;;;;;;;2.80;100.00;98572.31;4938871;29;20035;-87
2021/10/26 00:03:04;;;;;;;83.95;34.88;;;;;;;2.72;100.00;98590.91;4938013;28;20030;-84
2021/10/26 00:05:30;;;;;;;96.30;38.38;;;;;;;2.73;100.00;98580.34;4927746;28;20584;-86
2021/10/26 00:07:56;;;;;;;63.20;28.77;;;;;;;2.66;100.00;98583.94;4965893;28;20031;-88
2021/10/26 00:10:21;;;;;;;63.63;26.85;;;;;;;2.77;100.00;98569.72;4944640;28;20097;-86
2021/10/26 00:12:47;;;;;;;70.63;29.85;;;;;;;2.66;100.00;98573.38;4951843;28;20455;-86
2021/10/26 00:15:13;;;;;;;60.40;27.48;;;;;;;2.64;100.00;98559.34;4939164;28;20034;-86
2021/10/26 00:17:38;;;;;;;55.22;26.52;;;;;;;2.73;100.00;98569.78;4967905;28;20046;-86
2021/10/26 00:20:06;;;;;;;58.63;27.17;;;;;;;2.65;100.00;98573.38;4972822;28;20033;-88
2021/10/26 00:22:31;;;;;;;63.63;28.65;;;;;;;2.71;100.00;98576.81;4969528;28;20112;-87
2021/10/26 00:24:57;;;;;;;65.05;30.83;;;;;;;2.64;100.00;98553.19;4984414;28;20030;-86
2021/10/26 00:27:22;;;;;;;68.88;30.40;;;;;;;2.67;100.00;98571.63;4975209;28;20536;-86
2021/10/26 00:29:48;;;;;;;65.68;29.80;;;;;;;2.66;100.00;98554.91;4964058;28;20034;-86
2021/10/26 00:32:15;;;;;;;66.03;31.65;;;;;;;2.65;100.00;98558.41;4980033;28;20033;-86
2021/10/26 00:34:41;;;;;;;77.18;32.60;;;;;;;2.61;100.00;98569.94;4964000;28;20025;-86
2021/10/26 00:37:06;;;;;;;65.55;30.67;;;;;;;2.66;100.00;98559.31;4979806;28;20030;-86
2021/10/26 00:39:32;;;;;;;61.15;30.20;;;;;;;2.62;100.00;98550.53;4993968;28;20480;-87
2021/10/26 00:41:58;;;;;;;66.10;30.48;;;;;;;2.64;100.00;98556.69;4967142;28;20072;-87
2021/10/26 00:44:28;;;;;;;60.42;28.65;;;;;;;2.53;100.00;98552.44;4965394;28;20030;-87
2021/10/26 00:46:54;;;;;;;58.50;28.60;;;;;;;2.45;100.00;98546.41;4964783;28;20164;-87
2021/10/26 00:49:19;;;;;;;54.25;26.92;;;;;;;2.41;100.00;98548.22;4966909;28;20080;-87
2021/10/26 00:51:45;;;;;;;59.40;28.63;;;;;;;2.24;100.00;98525.59;4972342;28;20030;-87
2021/10/26 00:54:11;;;;;;;67.22;27.48;;;;;;;2.47;100.00;98549.88;4973686;28;20545;-86
2021/10/26 00:56:36;;;;;;;59.47;27.92;;;;;;;2.41;100.00;98537.66;4965863;28;20037;-87
2021/10/26 00:59:02;;;;;;;58.08;27.42;;;;;;;2.24;100.00;98536.13;4972640;28;20113;-86
2021/10/26 01:01:28;;;;;;;64.45;30.00;;;;;;;2.27;100.00;98536.09;4977986;28;20046;-85
2021/10/26 01:03:53;;;;;;;53.33;27.20;;;;;;;2.11;100.00;98535.41;4974927;28;20037;-87
2021/10/26 01:06:19;;;;;;;47.00;23.67;;;;;;;2.08;100.00;98538.97;4982285;28;20029;-87
2021/10/26 01:08:48;;;;;;;46.58;23.55;;;;;;;2.08;100.00;98533.69;4979579;28;20105;-88
2021/10/26 01:11:13;;;;;;;47.65;22.95;;;;;;;1.95;100.00;98518.03;4981702;28;20050;-86
2021/10/26 01:13:39;;;;;;;45.13;22.02;;;;;;;2.04;100.00;98515.28;4969683;28;20069;-87
2021/10/26 01:16:05;;;;;;;46.45;23.85;;;;;;;2.02;100.00;98530.25;4993340;28;20485;-86
2021/10/26 01:18:31;;;;;;;48.50;22.38;;;;;;;2.06;100.00;98531.97;4973954;28;20108;-87
2021/10/26 01:20:57;;;;;;;42.85;22.30;;;;;;;1.95;100.00;98515.38;4965109;28;20121;-87
2021/10/26 01:23:23;;;;;;;37.20;19.52;;;;;;;2.00;100.00;98522.34;4966043;28;20053;-88
2021/10/26 01:25:49;;;;;;;35.15;19.27;;;;;;;1.89;100.00;98518.09;4972833;28;20037;-88
2021/10/26 01:28:15;;;;;;;38.15;20.38;;;;;;;1.88;100.00;98506.66;4970957;28;20408;-88
2021/10/26 01:30:41;;;;;;;39.70;19.92;;;;;;;1.84;100.00;98514.66;4980515;28;20397;-87
2021/10/26 01:33:07;;;;;;;34.88;19.27;;;;;;;1.77;100.00;98497.16;4972238;28;20037;-87
2021/10/26 01:35:34;;;;;;;30.30;17.88;;;;;;;1.75;100.00;98520.03;4975617;28;20030;-86
2021/10/26 01:38:00;;;;;;;34.03;18.33;;;;;;;1.79;100.00;98516.47;4976730;28;20034;-86
2021/10/26 01:40:26;;;;;;;33.35;19.38;;;;;;;1.81;100.00;98502.38;4971688;28;20029;-87
2021/10/26 01:42:52;;;;;;;38.40;18.50;;;;;;;1.83;100.00;98497.97;4973995;28;20382;-87
2021/10/26 01:45:18;;;;;;;41.38;19.33;;;;;;;1.85;100.00;98505.84;4970553;28;20030;-87
2021/10/26 01:47:44;;;;;;;36.05;18.45;;;;;;;1.77;100.00;98502.44;4987094;28;20022;-87
2021/10/26 01:50:13;;;;;;;38.00;17.73;;;;;;;1.70;100.00;98495.47;4976503;28;20072;-87
2021/10/26 01:52:39;;;;;;;31.92;18.10;;;;;;;1.67;100.00;98492.88;4976031;28;20038;-87
2021/10/26 01:55:05;;;;;;;37.00;18.95;;;;;;;1.66;100.00;98499.06;4969931;28;20034;-87
2021/10/26 01:57:32;;;;;;;45.65;18.38;;;;;;;1.66;100.00;98488.50;4968603;28;20022;-87
2021/10/26 01:59:57;;;;;;;33.10;17.10;;;;;;;1.54;100.00;98481.59;4967144;28;20034;-87
2021/10/26 02:02:25;;;;;;;40.15;19.17;;;;;;;1.44;100.00;98472.94;4970638;28;20477;-87
2021/10/26 02:04:51;;;;;;;39.60;20.23;;;;;;;1.43;100.00;98494.91;4968018;28;20408;-87
2021/10/26 02:07:17;;;;;;;46.72;21.83;;;;;;;1.42;100.00;98495.78;4971719;28;20062;-87
2021/10/26 02:09:42;;;;;;;38.35;19.40;;;;;;;1.48;100.00;98484.28;4963175;28;20034;-87
2021/10/26 02:12:08;;;;;;;41.08;19.85;;;;;;;1.38;100.00;98482.66;4978183;28;20496;-87
2021/10/26 02:14:34;;;;;;;40.30;18.52;;;;;;;1.46;100.00;98486.97;4976933;28;20034;-88
2021/10/26 02:17:01;;;;;;;55.70;24.83;;;;;;;1.39;100.00;98474.72;4974486;28;20034;-87
2021/10/26 02:19:26;;;;;;;55.40;23.67;;;;;;;1.49;100.00;98476.38;4963743;28;20052;-87
2021/10/26 02:21:52;;;;;;;40.35;20.15;;;;;;;1.39;100.00;98461.56;4966668;28;20474;-88
2021/10/26 02:24:18;;;;;;;66.22;28.70;;;;;;;1.52;100.00;98479.00;4962999;28;20026;-87
2021/10/26 02:26:44;;;;;;;69.75;30.90;;;;;;;1.54;100.00;98478.94;4980246;28;20378;-87
2021/10/26 02:29:10;;;;;;;56.65;22.30;;;;;;;1.54;100.00;98474.56;4967440;28;20561;-86
2021/10/26 02:31:35;;;;;;;53.58;23.08;;;;;;;1.59;100.00;98471.88;4968046;28;20059;-88
2021/10/26 02:34:01;;;;;;;42.60;22.58;;;;;;;1.48;100.00;98479.91;4964257;28;20528;-87
2021/10/26 02:36:27;;;;;;;54.67;27.27;;;;;;;1.50;100.00;98466.72;4980551;28;20030;-88
2021/10/26 02:38:52;;;;;;;55.60;25.98;;;;;;;1.49;100.00;98478.13;4993748;28;20056;-88
2021/10/26 02:41:18;;;;;;;51.38;24.48;;;;;;;1.44;100.00;98462.41;4960308;28;20021;-88
2021/10/26 02:43:44;;;;;;;68.47;28.92;;;;;;;1.46;100.00;98476.41;4977468;28;20026;-87
2021/10/26 02:46:10;;;;;;;66.00;28.75;;;;;;;1.62;100.00;98478.00;4979451;28;20029;-88
2021/10/26 02:48:35;;;;;;;58.17;27.55;;;;;;;1.69;100.00;98488.47;4971518;28;20476;-87
2021/10/26 02:51:01;;;;;;;60.35;30.63;;;;;;;1.75;100.00;98498.94;4973129;28;20078;-88
2021/10/26 02:53:27;;;;;;;60.03;28.33;;;;;;;1.68;100.00;98465.63;4968304;28;20022;-87
2021/10/26 02:55:52;;;;;;;61.70;28.50;;;;;;;1.79;100.00;98476.91;4972797;28;20034;-87
2021/10/26 02:58:19;;;;;;;58.78;26.80;;;;;;;1.87;100.00;98478.56;4976303;28;20030;-87
2021/10/26 03:00:45;;;;;;;57.08;27.38;;;;;;;1.91;100.00;98469.72;4979833;28;20040;-87
2021/10/26 03:03:12;;;;;;;63.03;27.50;;;;;;;1.91;100.00;98476.75;4970595;28;20433;-87
2021/10/26 03:05:37;;;;;;;55.05;26.60;;;;;;;1.82;100.00;98469.81;4963728;28;20037;-87
2021/10/26 03:08:03;;;;;;;50.67;25.50;;;;;;;1.80;100.00;98471.63;4981988;28;20036;-88
2021/10/26 03:10:29;;;;;;;58.45;27.98;;;;;;;1.80;100.00;98470.75;4968005;28;20041;-87
2021/10/26 03:12:54;;;;;;;60.28;26.88;;;;;;;1.71;100.00;98453.28;4987381;28;20405;-87
2021/10/26 03:15:20;;;;;;;57.58;26.55;;;;;;;1.80;100.00;98481.28;4976294;28;20100;-87
2021/10/26 03:17:46;;;;;;;52.28;26.02;;;;;;;1.79;100.00;98474.25;4982776;28;20116;-86
2021/10/26 03:20:11;;;;;;;52.08;26.30;;;;;;;1.68;100.00;98473.53;4974005;28;20033;-88
2021/10/26 03:22:37;;;;;;;56.08;26.83;;;;;;;1.59;100.00;98463.97;4975861;28;20501;-88
2021/10/26 03:25:07;;;;;;;57.72;27.70;;;;;;;1.56;100.00;98464.88;4971689;28;20030;-86
2021/10/26 03:27:34;;;;;;;58.97;26.17;;;;;;;1.53;100.00;98457.00;4965333;28;20022;-88
2021/10/26 03:30:00;;;;;;;50.67;24.13;;;;;;;1.46;100.00;98457.97;4968284;28;20061;-87
2021/10/26 03:32:27;;;;;;;58.10;25.83;;;;;;;1.35;100.00;98451.97;4962558;28;20034;-87
2021/10/26 03:34:52;;;;;;;49.55;24.48;;;;;;;1.27;100.00;98445.00;4971495;28;20034;-88
2021/10/26 03:37:18;;;;;;;60.08;27.00;;;;;;;1.39;100.00;98463.31;4971743;28;20045;-88
2021/10/26 03:39:44;;;;;;;56.00;26.65;;;;;;;1.39;100.00;98458.03;4970200;28;20049;-87
2021/10/26 03:42:10;;;;;;;53.53;25.27;;;;;;;1.30;100.00;98463.41;4973722;28;20023;-87
2021/10/26 03:44:36;;;;;;;58.90;26.10;;;;;;;1.35;100.00;98457.22;4967436;28;20474;-87
2021/10/26 03:47:02;;;;;;;67.63;24.52;;;;;;;1.42;100.00;98468.53;4970895;28;20041;-84
2021/10/26 03:49:27;;;;;;;52.70;25.35;;;;;;;1.42;100.00;98465.91;4979016;28;20034;-89
2021/10/26 03:51:53;;;;;;;59.38;25.50;;;;;;;1.33;100.00;98451.09;4971949;28;20034;-87
2021/10/26 03:54:19;;;;;;;48.33;23.58;;;;;;;1.23;100.00;98444.16;4979074;28;20030;-87
2021/10/26 03:56:44;;;;;;;59.47;24.35;;;;;;;1.22;100.00;98470.53;4962469;28;20035;-89
2021/10/26 03:59:11;;;;;;;47.50;20.88;;;;;;;1.14;100.00;98451.31;4970781;28;20072;-88
2021/10/26 04:01:37;;;;;;;53.55;24.05;;;;;;;1.09;100.00;98468.03;4980128;28;20030;-89
2021/10/26 04:04:04;;;;;;;48.33;23.92;;;;;;;0.97;100.00;98451.47;4970105;28;20108;-90
2021/10/26 04:06:30;;;;;;;48.83;21.63;;;;;;;0.99;100.00;98454.94;4971535;28;20030;-89
2021/10/26 04:09:08;;;;;;;41.78;20.27;;;;;;;0.98;100.00;98445.31;4980932;28;20018;-91
2021/10/26 04:11:51;;;;;;;48.28;19.42;;;;;;;0.91;100.00;98444.50;4967573;28;20533;-89
2021/10/26 04:14:18;;;;;;;51.47;19.70;;;;;;;0.88;100.00;98449.81;4976106;28;20045;-89
2021/10/26 04:17:02;;;;;;;43.33;21.35;;;;;;;1.00;100.00;98459.34;4983278;28;20038;-88
2021/10/26 04:19:27;;;;;;;50.00;22.40;;;;;;;0.96;100.00;98452.34;4980787;28;20037;-89
2021/10/26 04:21:53;;;;;;;50.65;20.08;;;;;;;0.98;100.00;98455.84;4968785;28;20406;-87
2021/10/26 04:24:18;;;;;;;47.38;21.30;;;;;;;0.99;100.00;98442.66;4966211;28;20490;-90
2021/10/26 04:26:44;;;;;;;51.20;21.27;;;;;;;1.04;100.00;98447.91;4973645;28;20409;-85
2021/10/26 04:29:09;;;;;;;61.28;23.63;;;;;;;1.00;100.00;98447.03;4980056;28;20030;-87
2021/10/26 04:31:35;;;;;;;47.15;22.75;;;;;;;0.84;100.00;98436.66;4970466;28;20030;-88
2021/10/26 04:34:00;;;;;;;57.85;23.80;;;;;;;0.90;100.00;98447.13;4970709;28;20030;-89
2021/10/26 04:36:26;;;;;;;55.17;27.08;;;;;;;0.83;100.00;98441.03;4972310;28;20500;-87
2021/10/26 04:38:51;;;;;;;62.47;26.70;;;;;;;0.78;100.00;98437.59;4974876;28;20060;-88
2021/10/26 04:41:18;;;;;;;49.95;24.85;;;;;;;0.76;100.00;98426.22;4975210;28;20029;-87
2021/10/26 04:43:43;;;;;;;66.85;36.78;;;;;;;0.78;100.00;98427.06;4981177;28;20033;-87
2021/10/26 04:46:09;;;;;;;60.92;26.50;;;;;;;0.65;100.00;98414.03;4971841;28;20034;-89
2021/10/26 04:48:37;;;;;;;65.53;28.20;;;;;;;0.99;100.00;98452.31;4979119;28;20032;-90
2021/10/26 04:51:03;;;;;;;60.25;28.63;;;;;;;0.82;100.00;98428.78;4975584;28;20490;-88
2021/10/26 04:53:29;;;;;;;63.25;28.25;;;;;;;0.76;100.00;98422.72;4985351;28;20087;-89
2021/10/26 04:55:54;;;;;;;58.75;30.48;;;;;;;0.71;100.00;98427.16;4974348;28;20041;-87
2021/10/26 04:58:29;;;;;;;68.13;32.45;;;;;;;0.48;100.00;98375.59;4975218;28;20026;-91
2021/10/26 05:00:58;;;;;;;62.00;31.50;;;;;;;0.70;100.00;98414.88;4965698;28;20054;-91
2021/10/26 05:03:24;;;;;;;66.22;33.13;;;;;;;0.78;100.00;98411.25;4968152;28;20030;-93
2021/10/26 05:05:58;;;;;;;59.85;29.13;;;;;;;0.92;100.00;98429.59;4971082;28;20034;-91
2021/10/26 05:08:34;;;;;;;70.50;31.27;;;;;;;0.86;100.00;98419.09;4968779;28;20034;-90
2021/10/26 05:18:40;;;;;;;;;;;;;;;;;;;;;
2021/10/26 05:21:17;;;;;;;88.45;39.70;;;;;;;1.28;100.00;98468.72;5009778;28;20101;-90
2021/10/26 05:24:34;;;;;;;81.30;35.95;;;;;;;0.79;100.00;98376.16;4982464;28;20029;-89
2021/10/26 05:27:14;;;;;;;98.60;40.88;;;;;;;1.38;100.00;98451.94;4993683;28;20034;-90
2021/10/26 05:33:12;;;;;;;;;;;;;;;;;;;;;
2021/10/26 05:45:34;;;;;;;74.70;35.55;;;;;;;4.29;95.00;98431.06;4942546;29;20039;-87
2021/10/26 05:48:22;;;;;;;66.93;29.88;;;;;;;6.22;85.20;98477.22;4927350;29;20032;-90
2021/10/26 05:50:48;;;;;;;65.43;27.80;;;;;;;6.94;76.21;98437.72;4953750;28;20040;-90
2021/10/26 05:53:14;;;;;;;54.15;25.90;;;;;;;8.44;69.26;98480.22;4968393;28;20381;-91
2021/10/26 05:55:42;;;;;;;51.53;24.10;;;;;;;8.87;63.58;98387.84;4967428;28;20026;-91
2021/10/26 05:58:11;;;;;;;48.13;24.67;;;;;;;10.11;60.14;98439.31;4966451;28;20046;-91
2021/10/26 06:00:37;;;;;;;63.60;24.92;;;;;;;11.42;54.91;98418.59;4966010;28;20054;-93
2021/10/26 06:03:03;;;;;;;51.53;25.25;;;;;;;11.51;53.14;98401.19;4969535;28;20102;-92
2021/10/26 06:05:29;;;;;;;49.70;26.23;;;;;;;12.12;51.53;98419.44;4966949;28;20057;-91
2021/10/26 06:07:56;;;;;;;55.78;24.23;;;;;;;12.64;50.28;98457.69;4967269;28;20042;-92
2021/10/26 06:10:22;;;;;;;62.67;27.52;;;;;;;12.50;50.07;98437.84;4976385;28;20394;-90
2021/10/26 06:12:57;;;;;;;83.40;38.85;;;;;;;13.16;48.12;98426.94;4964724;28;20048;-91
2021/10/26 06:15:23;;;;;;;96.10;44.92;;;;;;;13.05;47.57;98391.72;4970893;28;20034;-94
2021/10/26 06:17:49;;;;;;;119.68;53.28;;;;;;;13.72;46.23;98395.81;4966683;28;20029;-92
2021/10/26 06:20:16;;;;;;;132.90;66.32;;;;;;;13.32;46.66;98425.06;4979537;28;20024;-91
2021/10/26 06:22:52;;;;;;;127.07;64.35;;;;;;;13.89;45.81;98460.19;4988785;28;20034;-93
2021/10/26 06:25:21;;;;;;;130.70;63.50;;;;;;;13.16;46.67;98393.84;4990455;28;20033;-94
2021/10/26 06:27:47;;;;;;;130.60;55.85;;;;;;;14.08;45.35;98439.28;4983623;28;20478;-83
2021/10/26 06:30:12;;;;;;;112.25;54.92;;;;;;;14.03;45.41;98431.47;4974158;28;20040;-78
2021/10/26 06:32:42;;;;;;;105.72;51.85;;;;;;;14.46;44.79;98461.13;4958636;28;20037;-77
2021/10/26 06:35:12;;;;;;;98.65;50.00;;;;;;;14.31;44.92;98456.66;4960426;28;20030;-76
2021/10/26 06:37:42;;;;;;;98.35;53.30;;;;;;;13.76;46.16;98464.56;4980141;28;20168;-79
2021/10/26 06:40:09;;;;;;;100.75;50.85;;;;;;;14.22;45.47;98463.50;4980331;28;20481;-77
2021/10/26 06:42:34;;;;;;;94.00;51.38;;;;;;;14.38;45.25;98453.56;4969360;28;20034;-76
2021/10/26 06:45:01;;;;;;;101.50;52.55;;;;;;;15.15;44.17;98455.75;4974128;28;20044;-76
2021/10/26 06:47:26;;;;;;;97.75;52.20;;;;;;;14.52;45.18;98466.13;4959453;28;20031;-78
2021/10/26 06:49:52;;;;;;;107.93;55.08;;;;;;;15.24;43.68;98455.13;4980504;28;20426;-76
2021/10/26 06:52:17;;;;;;;104.47;58.80;;;;;;;15.48;42.79;98437.34;4977568;28;20083;-77
2021/10/26 06:54:43;;;;;;;95.22;52.55;;;;;;;15.49;42.69;98444.47;4993906;28;20026;-74
2021/10/26 06:57:09;;;;;;;84.55;48.33;;;;;;;15.92;42.01;98452.34;4970271;28;20049;-77
2021/10/26 06:59:35;;;;;;;74.78;41.97;;;;;;;16.11;41.41;98436.59;4964801;28;20489;-75
2021/10/26 07:02:02;;;;;;;83.80;40.92;;;;;;;16.28;41.57;98436.25;4968038;28;20048;-77
2021/10/26 07:04:28;;;;;;;65.65;38.53;;;;;;;16.49;40.74;98426.63;4983278;28;20524;-77
2021/10/26 07:06:54;;;;;;;73.43;42.70;;;;;;;17.01;39.97;98439.09;4959568;28;20081;-75
2021/10/26 07:09:19;;;;;;;74.70;37.38;;;;;;;17.21;39.67;98430.38;4964572;28;20115;-76
2021/10/26 07:11:45;;;;;;;77.72;37.78;;;;;;;16.56;40.65;98438.75;4974293;28;20052;-75
2021/10/26 07:14:11;;;;;;;52.53;31.15;;;;;;;16.96;40.09;98435.84;4977674;28;20065;-78
2021/10/26 07:16:37;;;;;;;53.67;29.65;;;;;;;17.91;38.79;98438.56;4976159;28;20402;-77
2021/10/26 07:19:03;;;;;;;47.90;29.40;;;;;;;17.47;38.98;98431.13;4976077;28;20034;-77
2021/10/26 07:21:29;;;;;;;45.60;28.08;;;;;;;17.13;39.88;98441.78;4987414;28;20034;-75
2021/10/26 07:23:54;;;;;;;50.15;25.55;;;;;;;16.84;39.96;98432.22;4962963;28;20492;-76
2021/10/26 07:26:21;;;;;;;46.35;26.00;;;;;;;17.42;39.20;98428.75;4963471;28;20096;-77
2021/10/26 07:28:47;;;;;;;39.00;22.73;;;;;;;17.71;38.68;98427.44;4963896;28;20034;-75
2021/10/26 07:31:15;;;;;;;39.58;21.45;;;;;;;17.70;39.07;98441.09;4974068;28;20037;-75
2021/10/26 07:33:41;;;;;;;58.58;28.17;;;;;;;17.94;38.77;98425.66;4992807;28;20041;-76
2021/10/26 07:36:09;;;;;;;38.55;24.50;;;;;;;18.73;37.04;98414.84;4963661;28;20066;-77
2021/10/26 07:38:41;;;;;;;45.05;27.75;;;;;;;19.07;36.36;98406.66;4977392;28;20029;-79
2021/10/26 07:41:08;;;;;;;49.55;27.67;;;;;;;18.66;36.81;98419.00;4981085;28;20409;-78
2021/10/26 07:43:34;;;;;;;41.35;26.75;;;;;;;19.17;36.31;98410.28;4974064;28;20516;-79
2021/10/26 07:46:01;;;;;;;36.90;24.13;;;;;;;19.43;35.89;98414.47;4986099;28;20026;-81
2021/10/26 07:48:27;;;;;;;39.03;24.45;;;;;;;20.10;35.40;98403.25;5002934;28;20485;-78
2021/10/26 07:50:57;;;;;;;37.10;20.73;;;;;;;19.22;36.17;98411.66;4974578;28;20153;-77
2021/10/26 07:53:24;;;;;;;37.83;20.13;;;;;;;19.98;35.55;98395.19;4962380;28;20883;-75
2021/10/26 07:55:51;;;;;;;40.85;22.55;;;;;;;20.01;35.48;98391.34;4968768;28;20018;-77
2021/10/26 07:58:17;;;;;;;40.75;23.58;;;;;;;20.62;34.62;98386.84;4974794;28;20034;-75
2021/10/26 08:00:43;;;;;;;39.08;22.75;;;;;;;20.28;35.31;98379.94;4977731;28;20030;-81
2021/10/26 08:03:08;;;;;;;33.88;20.50;;;;;;;20.17;35.59;98389.03;4974470;28;20409;-80
2021/10/26 08:05:34;;;;;;;30.25;20.10;;;;;;;20.30;35.40;98386.97;4965661;28;20076;-80
2021/10/26 08:08:00;;;;;;;43.13;18.48;;;;;;;20.17;35.46;98388.16;4975323;28;20462;-78
2021/10/26 08:10:27;;;;;;;25.05;15.73;;;;;;;20.52;35.01;98389.50;4986825;28;20065;-78
2021/10/26 08:12:52;;;;;;;27.00;15.35;;;;;;;20.83;34.62;98384.03;4973363;28;20061;-80
2021/10/26 08:15:18;;;;;;;30.98;15.15;;;;;;;20.61;35.23;98384.28;4963900;28;20405;-79
2021/10/26 08:17:44;;;;;;;17.88;11.45;;;;;;;20.50;34.90;98374.34;4967984;28;20037;-74
2021/10/26 08:20:10;;;;;;;19.77;10.90;;;;;;;20.78;35.29;98384.47;4991948;28;20025;-76
2021/10/26 08:22:39;;;;;;;27.13;12.65;;;;;;;20.80;34.54;98382.47;4983669;28;20030;-75
2021/10/26 08:25:12;;;;;;;23.80;10.77;;;;;;;20.93;34.33;98371.34;4968506;28;20096;-75
2021/10/26 08:27:38;;;;;;;15.68;9.25;;;;;;;20.75;34.24;98373.88;4967587;28;20026;-73
2021/10/26 08:30:12;;;;;;;15.57;9.35;;;;;;;21.20;34.07;98374.28;4984888;28;20030;-74
2021/10/26 08:32:50;;;;;;;25.40;11.23;;;;;;;21.11;33.85;98374.25;4981584;28;20113;-75
2021/10/26 08:35:21;;;;;;;19.45;9.90;;;;;;;21.41;33.77;98377.75;4975994;28;20401;-75
2021/10/26 08:37:49;;;;;;;20.27;9.80;;;;;;;21.53;33.66;98379.31;4963983;28;20042;-77
2021/10/26 08:40:19;;;;;;;15.00;9.10;;;;;;;21.40;33.30;98375.19;4981786;28;20500;-75
2021/10/26 08:42:47;;;;;;;17.95;8.82;;;;;;;22.00;32.74;98369.44;4960343;28;20125;-75
2021/10/26 08:45:13;;;;;;;14.52;9.90;;;;;;;21.79;32.66;98370.56;4980339;28;20389;-77
2021/10/26 08:47:41;;;;;;;13.20;8.80;;;;;;;22.47;31.50;98364.88;4969645;28;20037;-74
2021/10/26 08:50:08;;;;;;;14.20;7.97;;;;;;;22.39;31.87;98366.63;4982311;28;20038;-73
2021/10/26 08:52:34;;;;;;;11.43;7.82;;;;;;;21.71;31.97;98360.41;4970754;28;20500;-80
2021/10/26 08:54:59;;;;;;;13.85;7.88;;;;;;;21.70;32.79;98366.00;4968637;28;20026;-73
2021/10/26 08:57:27;;;;;;;13.57;7.50;;;;;;;22.98;30.33;98347.97;4987347;28;20025;-77
2021/10/26 08:59:57;;;;;;;7.28;5.68;;;;;;;23.19;29.34;98340.38;4959584;28;20041;-76
2021/10/26 09:02:45;;;;;;;12.00;6.65;;;;;;;23.52;28.38;98338.88;4978399;28;20026;-76
2021/10/26 09:05:17;;;;;;;8.07;5.30;;;;;;;24.40;26.69;98323.31;4964438;28;20033;-76
2021/10/26 09:08:07;;;;;;;10.48;4.63;;;;;;;23.57;27.61;98330.19;4972530;28;20034;-75
2021/10/26 09:10:34;;;;;;;8.18;4.70;;;;;;;23.79;27.13;98324.25;4953880;28;20120;-77
2021/10/26 09:18:50;;;;;;;16.75;7.90;;;;;;;23.65;27.75;98319.34;4984044;28;20088;-74
2021/10/26 09:21:26;;;;;;;15.07;7.43;;;;;;;24.92;26.52;98311.25;4984269;28;20030;-77
2021/10/26 09:23:55;;;;;;;10.15;5.50;;;;;;;25.97;25.09;98300.44;4984315;28;20096;-75
2021/10/26 09:26:20;;;;;;;7.72;4.63;;;;;;;26.13;24.31;98292.22;4984905;28;20517;-76
2021/10/26 09:28:53;;;;;;;11.23;6.45;;;;;;;26.08;24.95;98297.38;4992169;28;20065;-77
2021/10/26 09:31:27;;;;;;;16.92;5.70;;;;;;;25.38;25.44;98287.91;4975945;28;20096;-79
2021/10/26 09:34:19;;;;;;;19.35;9.00;;;;;;;24.80;25.43;98290.66;4992011;28;20080;-76
2021/10/26 09:36:47;;;;;;;10.90;5.68;;;;;;;24.55;26.45;98288.88;4980985;28;20038;-75
2021/10/26 09:39:15;;;;;;;12.38;5.07;;;;;;;25.01;25.59;98282.88;4973711;28;20095;-75
2021/10/26 09:41:50;;;;;;;8.80;5.15;;;;;;;23.64;26.68;98282.09;4978128;28;20406;-75
2021/10/26 09:44:18;;;;;;;6.18;4.47;;;;;;;23.41;27.45;98281.72;4999465;28;20122;-75
2021/10/26 09:46:53;;;;;;;7.18;4.18;;;;;;;;;;4965824;28;20030;-77
2021/10/26 09:49:29;;;;;;;10.50;4.20;;;;;;;22.88;26.78;98270.78;4978296;28;20228;-75
2021/10/26 09:52:25;;;;;;;9.13;4.38;;;;;;;23.77;26.34;98255.22;4961837;28;20027;-75
2021/10/26 09:57:56;;;;;;;8.77;5.05;;;;;;;25.37;24.72;98247.00;4985010;28;20025;-79
2021/10/26 10:00:28;;;;;;;11.48;5.25;;;;;;;25.52;24.91;98242.59;4981056;28;20121;-76
2021/10/26 10:03:05;;;;;;;9.70;5.10;;;;;;;24.01;26.51;98236.25;4991378;28;20883;-77
2021/10/26 10:05:34;;;;;;;6.75;4.32;;;;;;;23.78;26.44;98226.88;5015244;28;20121;-76
2021/10/26 10:08:34;;;;;;;6.63;4.55;;;;;;;24.22;25.82;98220.34;4993279;28;20387;-74
2021/10/26 10:11:11;;;;;;;6.88;4.75;;;;;;;24.40;26.62;98235.78;4978292;28;20054;-75
2021/10/26 10:13:41;;;;;;;10.77;4.82;;;;;;;25.24;24.89;98210.03;4978695;28;20029;-77
2021/10/26 10:16:08;;;;;;;10.07;5.55;;;;;;;24.40;26.32;98213.88;4992436;28;20041;-75
2021/10/26 10:18:34;;;;;;;5.80;4.47;;;;;;;25.10;25.00;98207.94;4974525;28;20409;-75
2021/10/26 10:21:00;;;;;;;7.10;4.60;;;;;;;24.53;26.00;98200.63;4969926;28;20465;-75
2021/10/26 10:23:26;;;;;;;7.82;4.72;;;;;;;24.10;26.60;98202.47;5009874;28;20033;-78
2021/10/26 10:25:56;;;;;;;12.55;5.68;;;;;;;25.15;25.60;98199.22;4996386;28;20033;-77
2021/10/26 10:28:24;;;;;;;11.43;4.88;;;;;;;23.84;26.60;98184.41;4962080;28;20065;-76
2021/10/26 10:30:51;;;;;;;7.32;4.72;;;;;;;23.67;26.64;98194.34;4981579;28;20050;-76
2021/10/26 10:33:18;;;;;;;8.73;4.65;;;;;;;24.27;26.20;98195.25;4982346;28;20588;-76
2021/10/26 10:35:45;;;;;;;7.80;4.82;;;;;;;24.73;25.53;98171.94;4971786;28;20462;-77
2021/10/26 10:38:11;;;;;;;9.63;5.15;;;;;;;25.39;25.24;98176.44;4978148;28;20096;-77
2021/10/26 10:40:38;;;;;;;14.38;5.18;;;;;;;25.70;25.31;98181.06;4974222;28;20026;-76
2021/10/26 10:43:04;;;;;;;9.60;4.88;;;;;;;25.87;24.10;98173.69;4973704;28;20086;-74
2021/10/26 10:45:34;;;;;;;13.32;5.13;;;;;;;25.84;24.50;98176.75;4996027;28;20029;-76
2021/10/26 10:48:23;;;;;;;11.25;6.53;;;;;;;26.51;23.86;98177.22;4974821;28;20041;-76
2021/10/26 10:51:09;;;;;;;12.05;5.65;;;;;;;26.56;23.83;98169.28;5012931;28;20042;-75
2021/10/26 10:53:34;;;;;;;11.45;5.97;;;;;;;26.77;23.14;98153.00;4983699;28;20022;-76
2021/10/26 10:56:20;;;;;;;7.28;4.53;;;;;;;25.47;24.15;98154.53;4995533;28;20463;-75
2021/10/26 10:58:49;;;;;;;5.75;3.83;;;;;;;25.93;23.78;98148.28;4992036;28;20108;-75
2021/10/26 11:01:32;;;;;;;6.78;3.90;;;;;;;26.28;23.42;98141.47;4975322;28;20057;-77
2021/10/26 11:04:00;;;;;;;7.57;4.57;;;;;;;25.04;25.00;98136.59;4988651;28;20080;-77
2021/10/26 11:06:41;;;;;;;12.23;4.28;;;;;;;25.91;23.94;98135.75;4990261;28;20037;-76
2021/10/26 11:09:28;;;;;;;8.07;4.38;;;;;;;26.30;23.53;98125.72;4985753;28;20066;-77
2021/10/26 11:12:16;;;;;;;8.75;4.13;;;;;;;24.95;25.42;98124.75;4974091;28;20089;-76
2021/10/26 11:14:46;;;;;;;12.77;6.18;;;;;;;25.04;25.46;98115.50;4958897;28;20034;-75
2021/10/26 11:17:35;;;;;;;13.00;5.57;;;;;;;25.87;24.54;98122.41;4991714;28;20486;-76
2021/10/26 11:20:12;;;;;;;8.73;4.80;;;;;;;26.06;23.89;98112.91;4974868;28;20045;-76
2021/10/26 11:22:50;;;;;;;14.52;4.75;;;;;;;26.16;24.17;98121.81;4958484;28;20027;-78
2021/10/26 11:25:28;;;;;;;5.13;3.88;;;;;;;26.72;23.36;98109.66;4992330;28;20060;-79
2021/10/26 11:27:58;;;;;;;7.28;4.57;;;;;;;27.35;22.92;98106.56;4988178;28;20482;-78
2021/10/26 11:30:36;;;;;;;8.57;4.88;;;;;;;27.58;22.48;98105.69;4977293;28;20022;-76
2021/10/26 11:33:13;;;;;;;6.43;4.30;;;;;;;27.86;22.04;98096.59;4982506;28;20410;-78
2021/10/26 11:35:55;;;;;;;5.43;4.65;;;;;;;26.77;23.18;98089.88;4974346;28;20030;-77
2021/10/26 11:38:25;;;;;;;;;;;;;;;27.42;23.07;98096.56;4976765;28;20049;-78
2021/10/26 11:40:51;;;;;;;5.28;4.20;;;;;;;26.59;23.63;98086.56;4971004;28;20424;-78
2021/10/26 11:43:17;;;;;;;7.03;4.35;;;;;;;25.78;24.34;98073.25;4999936;28;20026;-79
2021/10/26 11:45:56;;;;;;;10.40;4.43;;;;;;;25.87;24.37;98083.19;4960620;28;20096;-78
2021/10/26 11:48:45;;;;;;;10.55;5.07;;;;;;;25.73;24.17;98082.03;4967633;28;20036;-78
2021/10/26 11:51:23;;;;;;;5.57;4.13;;;;;;;24.82;25.10;98071.56;4973608;28;20037;-77
2021/10/26 11:53:57;;;;;;;10.27;4.50;;;;;;;26.27;23.89;98072.03;4963082;28;20413;-76
2021/10/26 11:56:37;;;;;;;12.02;6.07;;;;;;;27.19;23.22;98079.25;4961559;28;20399;-77
2021/10/26 11:59:07;;;;;;;10.30;4.88;;;;;;;25.86;23.89;98068.63;4985474;28;20057;-77
2021/10/26 12:01:47;;;;;;;6.75;4.05;;;;;;;25.04;24.88;98060.75;4992929;28;20041;-77